Time;durP1;ratioP1;P1;durP2;ratioP2;P2;SDS_P1;SDS_P2;PMS_P1;PMS_P2;Temp;Humidity;BMP_temperature;BMP_pressure;BME280_temperature;BME280_humidity;BME280_pressure;Samples;Min_cycle;Max_cycle;Signal;HPM_P1;HPM_P2
2022/12/07 00:01:29;;;;;;;4.65;1.27;;;3.10;99.90;;;;;;5127817;27;20043;-66
2022/12/07 00:04:00;;;;;;;6.00;1.25;;;3.10;99.90;;;;;;5091505;28;20038;-65
2022/12/07 00:06:26;;;;;;;8.00;1.45;;;3.10;99.90;;;;;;5093766;28;20043;-67
2022/12/07 00:08:52;;;;;;;5.90;1.58;;;3.10;99.90;;;;;;5122824;27;20040;-66
2022/12/07 00:11:22;;;;;;;3.97;1.10;;;3.10;99.90;;;;;;5094153;28;20058;-66
2022/12/07 00:13:53;;;;;;;6.03;1.27;;;3.10;99.90;;;;;;5126835;27;20070;-66
2022/12/07 00:16:21;;;;;;;8.10;1.20;;;3.00;99.90;;;;;;5124748;27;20050;-66
2022/12/07 00:18:47;;;;;;;7.93;1.70;;;3.00;99.90;;;;;;5125867;27;20039;-66
2022/12/07 00:21:16;;;;;;;8.68;1.52;;;3.00;99.90;;;;;;5093741;28;20104;-67
2022/12/07 00:23:43;;;;;;;4.65;1.58;;;3.00;99.90;;;;;;5127162;27;20524;-66
2022/12/07 00:26:14;;;;;;;6.45;1.33;;;3.00;99.90;;;;;;5127179;27;20051;-66
2022/12/07 00:28:40;;;;;;;4.55;1.77;;;3.00;99.90;;;;;;5128941;27;20028;-66
2022/12/07 00:31:09;;;;;;;7.43;1.52;;;3.00;99.90;;;;;;5093034;28;20047;-66
2022/12/07 00:33:36;;;;;;;8.65;1.52;;;3.00;99.90;;;;;;5093062;28;20047;-66
2022/12/07 00:36:04;;;;;;;9.43;1.92;;;3.00;99.90;;;;;;5124960;27;20081;-66
2022/12/07 00:38:31;;;;;;;10.05;1.60;;;3.00;99.90;;;;;;5126110;27;20040;-67
2022/12/07 00:40:58;;;;;;;10.25;1.50;;;3.00;99.90;;;;;;5127281;27;20039;-66
2022/12/07 00:43:25;;;;;;;7.05;1.40;;;3.00;99.90;;;;;;5126585;27;20035;-65
2022/12/07 00:45:51;;;;;;;5.68;1.30;;;3.00;99.90;;;;;;5127548;27;20059;-66
2022/12/07 00:48:17;;;;;;;9.25;1.58;;;3.00;99.90;;;;;;5116265;27;20055;-66
2022/12/07 00:50:43;;;;;;;4.88;1.40;;;3.00;99.90;;;;;;5105410;27;20035;-66
2022/12/07 00:53:08;;;;;;;4.40;1.20;;;3.00;99.90;;;;;;5086586;27;20040;-66
2022/12/07 00:55:35;;;;;;;5.35;1.30;;;3.00;99.90;;;;;;5092259;28;20123;-65
2022/12/07 00:58:01;;;;;;;4.93;1.75;;;3.00;99.90;;;;;;5118080;27;20059;-65
2022/12/07 01:00:26;;;;;;;13.73;1.50;;;3.00;99.90;;;;;;5101131;27;20036;-66
2022/12/07 01:02:52;;;;;;;7.43;1.48;;;2.90;99.90;;;;;;5121204;27;20043;-65
2022/12/07 01:05:18;;;;;;;6.53;1.60;;;2.90;99.90;;;;;;5119428;27;20158;-65
2022/12/07 01:07:44;;;;;;;6.38;1.23;;;2.90;99.90;;;;;;5104938;28;20099;-66
2022/12/07 01:10:10;;;;;;;5.05;1.00;;;2.90;99.90;;;;;;5105704;27;20040;-65
2022/12/07 01:12:35;;;;;;;7.47;1.88;;;2.90;99.90;;;;;;5110366;28;20621;-66
2022/12/07 01:15:01;;;;;;;8.50;1.30;;;3.00;99.90;;;;;;5092964;28;20427;-66
2022/12/07 01:17:28;;;;;;;4.88;1.35;;;3.00;99.90;;;;;;5091500;28;20059;-66
2022/12/07 01:19:54;;;;;;;7.55;1.30;;;3.00;99.90;;;;;;5123904;27;20031;-67
2022/12/07 01:22:19;;;;;;;4.15;1.10;;;2.90;99.90;;;;;;5091877;28;21454;-66
2022/12/07 01:24:46;;;;;;;6.60;1.20;;;2.90;99.90;;;;;;5087844;28;20038;-66
2022/12/07 01:27:12;;;;;;;8.07;1.63;;;2.90;99.90;;;;;;5123926;27;20035;-66
2022/12/07 01:29:38;;;;;;;7.35;1.55;;;2.80;99.90;;;;;;5090360;28;20618;-66
2022/12/07 01:32:04;;;;;;;6.57;1.25;;;2.80;99.90;;;;;;5090645;28;20139;-65
2022/12/07 01:34:29;;;;;;;12.10;1.50;;;2.70;99.90;;;;;;5087837;28;20460;-66
2022/12/07 01:36:55;;;;;;;8.38;1.10;;;2.70;99.90;;;;;;5085960;28;20039;-66
2022/12/07 01:39:21;;;;;;;8.52;1.23;;;2.80;99.90;;;;;;5083302;28;20054;-66
2022/12/07 01:41:47;;;;;;;4.40;1.10;;;2.80;99.90;;;;;;5121478;27;20405;-66
2022/12/07 01:44:25;;;;;;;3.75;0.90;;;2.80;99.90;;;;;;5073905;28;20035;-65
2022/12/07 01:46:57;;;;;;;5.75;1.02;;;2.80;99.90;;;;;;5122386;27;20155;-66
2022/12/07 01:49:40;;;;;;;3.60;1.08;;;2.80;99.90;;;;;;5121136;27;20402;-65
2022/12/07 01:52:29;;;;;;;2.92;1.00;;;2.80;99.90;;;;;;5083783;28;20039;-65
2022/12/07 01:54:59;;;;;;;5.72;1.05;;;2.70;99.90;;;;;;5123083;27;20039;-65
2022/12/07 01:57:24;;;;;;;3.45;1.00;;;2.70;99.90;;;;;;5125345;27;20040;-66
2022/12/07 01:59:52;;;;;;;3.15;0.90;;;2.70;99.90;;;;;;5092761;28;20160;-65
2022/12/07 02:02:27;;;;;;;6.00;0.75;;;2.70;99.90;;;;;;5075246;28;20061;-65
2022/12/07 02:04:55;;;;;;;5.07;0.98;;;2.80;99.90;;;;;;5088335;28;20398;-66
2022/12/07 02:07:23;;;;;;;4.20;0.88;;;2.70;99.90;;;;;;5117824;27;20251;-66
2022/12/07 02:09:48;;;;;;;5.68;1.00;;;2.80;99.90;;;;;;5095884;27;20035;-66
2022/12/07 02:12:14;;;;;;;8.77;1.27;;;2.80;99.90;;;;;;5090989;28;20063;-66
2022/12/07 02:14:40;;;;;;;6.10;0.90;;;2.80;99.90;;;;;;5110152;27;20399;-65
2022/12/07 02:17:20;;;;;;;5.65;1.23;;;2.80;99.90;;;;;;5092039;28;20114;-65
2022/12/07 02:20:09;;;;;;;5.85;1.10;;;2.70;99.90;;;;;;5092770;28;20039;-65
2022/12/07 02:22:47;;;;;;;6.10;1.10;;;2.70;99.90;;;;;;5129855;27;20131;-66
2022/12/07 02:25:55;;;;;;;2.92;1.05;;;2.70;99.90;;;;;;5096180;28;20031;-66
2022/12/07 02:28:36;;;;;;;3.72;0.77;;;2.70;99.90;;;;;;5098096;28;20040;-66
2022/12/07 02:31:15;;;;;;;3.25;0.82;;;2.70;99.90;;;;;;5127487;27;20034;-66
2022/12/07 02:33:50;;;;;;;3.88;0.95;;;2.70;99.90;;;;;;5095381;27;20051;-65
2022/12/07 02:36:18;;;;;;;6.30;1.17;;;2.60;99.90;;;;;;5093502;28;20040;-66
2022/12/07 02:38:54;;;;;;;4.53;1.25;;;2.60;99.90;;;;;;5092789;27;20039;-65
2022/12/07 02:41:31;;;;;;;6.57;1.10;;;2.60;99.90;;;;;;5129624;27;20063;-66
2022/12/07 02:44:04;;;;;;;3.35;0.75;;;2.60;99.90;;;;;;5128506;27;20056;-65
2022/12/07 02:46:40;;;;;;;4.45;1.02;;;2.60;99.90;;;;;;5094723;28;20039;-66
2022/12/07 02:49:07;;;;;;;7.80;1.00;;;2.60;99.90;;;;;;5104597;28;20077;-66
2022/12/07 02:51:38;;;;;;;9.13;1.35;;;2.60;99.90;;;;;;5114916;27;20081;-66
2022/12/07 02:54:17;;;;;;;6.10;1.10;;;2.60;99.90;;;;;;5123066;27;20509;-67
2022/12/07 02:56:50;;;;;;;6.90;0.85;;;2.70;99.90;;;;;;5095671;28;20177;-65
2022/12/07 02:59:47;;;;;;;5.03;1.13;;;2.70;99.90;;;;;;5089086;28;20058;-66
2022/12/07 03:02:39;;;;;;;5.55;1.80;;;2.80;99.90;;;;;;5083248;28;20040;-66
2022/12/07 03:05:23;;;;;;;8.50;1.10;;;2.80;99.90;;;;;;5128375;27;20036;-65
2022/12/07 03:08:01;;;;;;;4.93;0.88;;;2.80;99.90;;;;;;5092269;28;20047;-66
2022/12/07 03:10:56;;;;;;;8.05;1.25;;;2.90;99.90;;;;;;5093192;28;20044;-66
2022/12/07 03:13:45;;;;;;;7.35;1.45;;;2.90;99.90;;;;;;5091043;28;20058;-67
2022/12/07 03:16:30;;;;;;;8.90;1.40;;;2.90;99.90;;;;;;5094397;28;20525;-66
2022/12/07 03:19:00;;;;;;;6.60;1.23;;;2.90;99.90;;;;;;5092245;28;20031;-66
2022/12/07 03:21:47;;;;;;;7.53;1.13;;;2.90;99.90;;;;;;5125595;27;20058;-65
2022/12/07 03:24:20;;;;;;;7.47;1.75;;;2.90;99.90;;;;;;5128519;27;20042;-66
2022/12/07 03:26:51;;;;;;;3.83;0.90;;;2.90;99.90;;;;;;5097131;27;20093;-66
2022/12/07 03:29:26;;;;;;;4.20;0.80;;;3.00;99.90;;;;;;5093277;28;20085;-66
2022/12/07 03:32:02;;;;;;;2.88;0.80;;;3.00;99.90;;;;;;5093420;27;20389;-65
2022/12/07 03:34:34;;;;;;;3.75;0.65;;;3.00;99.90;;;;;;5095360;28;20417;-67
2022/12/07 03:37:21;;;;;;;4.97;0.87;;;3.00;99.90;;;;;;5123594;27;20043;-66
2022/12/07 03:40:03;;;;;;;4.75;0.73;;;3.00;99.90;;;;;;5093880;28;20070;-65
2022/12/07 03:42:30;;;;;;;7.97;0.80;;;3.00;99.90;;;;;;5093021;28;20839;-66
2022/12/07 03:44:56;;;;;;;6.63;0.90;;;3.10;99.90;;;;;;5095275;28;20466;-66
2022/12/07 03:47:48;;;;;;;6.00;0.90;;;3.10;99.90;;;;;;5110730;27;20118;-66
2022/12/07 03:50:26;;;;;;;5.80;0.82;;;3.10;99.90;;;;;;5127140;27;20043;-66
2022/12/07 03:52:59;;;;;;;12.48;0.98;;;3.10;99.90;;;;;;5079265;28;20421;-66
2022/12/07 03:55:29;;;;;;;6.88;0.90;;;3.10;99.90;;;;;;5127399;27;20051;-65
2022/12/07 03:58:09;;;;;;;6.60;1.10;;;3.00;99.90;;;;;;5093786;27;20052;-66
2022/12/07 04:00:35;;;;;;;9.90;1.17;;;3.10;99.90;;;;;;5128160;27;20051;-66
2022/12/07 04:03:00;;;;;;;6.20;0.88;;;3.00;99.90;;;;;;5093834;28;20055;-64
2022/12/07 04:05:27;;;;;;;4.18;0.88;;;3.00;99.90;;;;;;5094000;28;20047;-66
2022/12/07 04:07:53;;;;;;;5.30;0.80;;;3.00;99.90;;;;;;5092511;28;20176;-66
2022/12/07 04:10:19;;;;;;;5.35;0.68;;;3.00;99.90;;;;;;5095140;28;20043;-66
2022/12/07 04:12:44;;;;;;;4.97;0.60;;;2.90;99.90;;;;;;5126449;27;20058;-66
2022/12/07 04:15:10;;;;;;;2.08;0.50;;;2.90;99.90;;;;;;5103446;27;20047;-66
2022/12/07 04:17:35;;;;;;;8.00;1.00;;;2.90;99.90;;;;;;5086776;28;20032;-65
2022/12/07 04:20:01;;;;;;;5.55;0.88;;;2.80;99.90;;;;;;5091015;28;20066;-65
2022/12/07 04:22:27;;;;;;;6.45;0.70;;;2.80;99.90;;;;;;5089176;27;20059;-66
2022/12/07 04:24:53;;;;;;;5.07;0.65;;;2.80;99.90;;;;;;5105176;27;20051;-66
2022/12/07 04:27:18;;;;;;;5.22;1.77;;;2.80;99.90;;;;;;5089971;28;20038;-66
2022/12/07 04:29:44;;;;;;;5.13;0.75;;;2.80;99.90;;;;;;5074148;28;20450;-65
2022/12/07 04:32:09;;;;;;;4.20;0.60;;;2.70;99.90;;;;;;5086313;27;20054;-66
2022/12/07 04:34:35;;;;;;;3.40;0.63;;;2.70;99.90;;;;;;5124941;27;20040;-65
2022/12/07 04:37:01;;;;;;;2.75;0.50;;;2.60;99.90;;;;;;5118270;27;20039;-66
2022/12/07 04:39:29;;;;;;;3.08;0.65;;;2.60;99.90;;;;;;5088201;28;20035;-66
2022/12/07 04:41:55;;;;;;;2.72;0.55;;;2.60;99.90;;;;;;5087554;27;20088;-66
2022/12/07 04:44:22;;;;;;;4.63;0.75;;;2.60;99.90;;;;;;5081112;27;20043;-65
2022/12/07 04:46:48;;;;;;;9.70;1.10;;;2.60;99.90;;;;;;5120052;27;20031;-66
2022/12/07 04:49:15;;;;;;;8.25;1.13;;;2.60;99.90;;;;;;5105937;28;20122;-66
2022/12/07 04:51:41;;;;;;;5.57;0.80;;;2.50;99.90;;;;;;5127256;27;20040;-66
2022/12/07 04:54:07;;;;;;;5.40;0.80;;;2.50;99.90;;;;;;5110630;28;20401;-66
2022/12/07 04:56:34;;;;;;;8.48;1.13;;;2.50;99.90;;;;;;5122091;27;20042;-66
2022/12/07 04:59:01;;;;;;;4.57;0.90;;;2.50;99.90;;;;;;5123838;27;20127;-65
2022/12/07 05:01:27;;;;;;;5.35;1.17;;;2.40;99.90;;;;;;5089707;27;20056;-66
2022/12/07 05:03:53;;;;;;;5.38;0.95;;;2.40;99.90;;;;;;5124841;27;20044;-66
2022/12/07 05:06:19;;;;;;;5.57;1.10;;;2.40;99.90;;;;;;5093427;28;20035;-66
2022/12/07 05:08:45;;;;;;;4.85;1.05;;;2.40;99.90;;;;;;5087667;28;20108;-66
2022/12/07 05:11:37;;;;;;;3.97;0.50;;;2.40;99.90;;;;;;5119611;27;20130;-66
2022/12/07 05:14:00;;;;;;;8.02;1.10;;;2.40;99.90;;;;;;5085749;27;20043;-65
2022/12/07 05:16:26;;;;;;;5.97;0.70;;;2.30;99.90;;;;;;5126630;27;20054;-66
2022/12/07 05:18:52;;;;;;;4.13;1.10;;;2.40;99.90;;;;;;5086770;28;20035;-66
2022/12/07 05:21:18;;;;;;;5.13;0.98;;;2.30;99.90;;;;;;5123333;27;20478;-65
2022/12/07 05:23:43;;;;;;;4.88;0.80;;;2.30;99.90;;;;;;5120131;27;20039;-66
2022/12/07 05:26:09;;;;;;;6.82;0.90;;;2.30;99.90;;;;;;5090557;28;20040;-66
2022/12/07 05:28:34;;;;;;;3.45;0.63;;;2.30;99.90;;;;;;5124971;27;20040;-65
2022/12/07 05:31:00;;;;;;;6.05;1.05;;;2.30;99.90;;;;;;5089740;28;20073;-65
2022/12/07 05:33:26;;;;;;;4.72;0.90;;;2.30;99.90;;;;;;5102921;28;20039;-65
2022/12/07 05:35:51;;;;;;;5.95;1.00;;;2.30;99.90;;;;;;5120141;27;20031;-66
2022/12/07 05:38:17;;;;;;;3.60;1.17;;;2.20;99.90;;;;;;5103995;28;20404;-66
2022/12/07 05:40:43;;;;;;;4.68;0.85;;;2.20;99.90;;;;;;5088037;28;20093;-67
2022/12/07 05:43:08;;;;;;;5.28;0.63;;;2.20;99.90;;;;;;5088176;28;20047;-66
2022/12/07 05:45:34;;;;;;;6.35;0.73;;;2.10;99.90;;;;;;5123121;27;20058;-66
2022/12/07 05:47:59;;;;;;;4.30;0.70;;;2.10;99.90;;;;;;5126942;27;20046;-66
2022/12/07 05:50:25;;;;;;;2.80;0.60;;;2.10;99.90;;;;;;5089404;28;20044;-66
2022/12/07 05:52:51;;;;;;;7.22;1.05;;;2.10;99.90;;;;;;5121129;27;20039;-66
2022/12/07 05:55:16;;;;;;;5.90;1.02;;;2.10;99.90;;;;;;5095803;28;20772;-66
2022/12/07 05:59:22;;;;;;;7.40;1.00;;;2.10;99.90;;;;;;5075280;28;20044;-66
2022/12/07 06:00:31;;;;;;;5.38;1.00;;;2.20;99.90;;;;;;5125087;27;20563;-66
2022/12/07 06:02:56;;;;;;;9.35;1.25;;;2.20;99.90;;;;;;5079078;28;20043;-65
2022/12/07 06:05:22;;;;;;;9.88;1.45;;;2.30;99.90;;;;;;5095628;27;20163;-66
2022/12/07 06:07:48;;;;;;;7.90;1.60;;;2.30;99.90;;;;;;5096160;28;20044;-66
2022/12/07 06:10:13;;;;;;;5.25;0.90;;;2.30;99.90;;;;;;5093457;27;20043;-66
2022/12/07 06:12:42;;;;;;;8.93;1.08;;;2.30;99.90;;;;;;5091796;27;20051;-66
2022/12/07 06:15:08;;;;;;;7.47;0.93;;;2.20;99.90;;;;;;5110715;28;20032;-67
2022/12/07 06:17:34;;;;;;;9.23;1.33;;;2.20;99.90;;;;;;5092306;28;20071;-66
2022/12/07 06:20:00;;;;;;;10.88;1.33;;;2.20;99.90;;;;;;5095933;28;20066;-66
2022/12/07 06:22:25;;;;;;;7.65;1.35;;;2.20;99.90;;;;;;5096097;28;20082;-66
2022/12/07 06:24:51;;;;;;;6.20;1.05;;;2.20;99.90;;;;;;5095625;28;20039;-66
2022/12/07 06:27:17;;;;;;;5.50;1.08;;;2.20;99.90;;;;;;5094220;27;20048;-65
2022/12/07 06:29:42;;;;;;;5.20;1.10;;;2.20;99.90;;;;;;5081477;27;20036;-65
2022/12/07 06:32:08;;;;;;;9.70;1.60;;;2.30;99.90;;;;;;5094896;28;20475;-66
2022/12/07 06:34:34;;;;;;;6.30;0.73;;;2.30;99.90;;;;;;5129360;27;20046;-66
2022/12/07 06:37:00;;;;;;;7.43;1.20;;;2.40;99.90;;;;;;5093739;28;20040;-66
2022/12/07 06:39:27;;;;;;;7.55;1.45;;;2.50;99.90;;;;;;5093624;28;20032;-65
2022/12/07 06:41:53;;;;;;;6.95;1.02;;;2.60;99.90;;;;;;5129461;27;20115;-66
2022/12/07 06:44:20;;;;;;;7.25;0.95;;;2.70;99.90;;;;;;5080179;28;20497;-66
2022/12/07 06:46:45;;;;;;;9.43;1.38;;;2.70;99.90;;;;;;5128951;27;20039;-66
2022/12/07 06:49:12;;;;;;;4.88;1.00;;;2.70;99.90;;;;;;5089428;28;20044;-66
2022/12/07 06:51:41;;;;;;;5.80;1.05;;;2.80;99.90;;;;;;5113141;28;20481;-65
2022/12/07 06:54:08;;;;;;;7.65;1.60;;;2.80;99.90;;;;;;5128761;27;20066;-66
2022/12/07 06:56:33;;;;;;;5.53;0.73;;;2.80;99.90;;;;;;5129262;27;20401;-66
2022/12/07 06:58:59;;;;;;;6.43;0.80;;;2.80;99.90;;;;;;5095560;27;20044;-66
2022/12/07 07:01:25;;;;;;;7.97;1.45;;;2.80;99.90;;;;;;5097188;27;20030;-65
2022/12/07 07:03:50;;;;;;;4.60;1.00;;;2.80;99.90;;;;;;5100365;28;20035;-65
2022/12/07 07:06:16;;;;;;;9.35;1.23;;;2.90;99.90;;;;;;5095009;28;20560;-64
2022/12/07 07:08:42;;;;;;;3.53;1.20;;;2.90;99.90;;;;;;5100015;28;20038;-65
2022/12/07 07:11:08;;;;;;;5.90;1.10;;;2.90;99.90;;;;;;5093410;28;20505;-66
2022/12/07 07:13:34;;;;;;;5.22;0.80;;;2.90;99.90;;;;;;5094394;28;20122;-66
2022/12/07 07:16:00;;;;;;;5.50;1.05;;;2.90;99.90;;;;;;5095166;28;20115;-66
2022/12/07 07:18:26;;;;;;;4.22;0.77;;;2.90;99.90;;;;;;5094737;28;20036;-65
2022/12/07 07:20:52;;;;;;;5.05;0.93;;;2.80;99.90;;;;;;5129539;27;20138;-65
2022/12/07 07:23:18;;;;;;;5.20;0.90;;;2.80;99.90;;;;;;5112435;27;20121;-65
2022/12/07 07:25:44;;;;;;;4.40;0.90;;;2.80;99.90;;;;;;5095041;28;20047;-66
2022/12/07 07:28:10;;;;;;;3.30;1.23;;;2.80;99.90;;;;;;5093468;27;20187;-65
2022/12/07 07:30:35;;;;;;;3.35;0.73;;;2.70;99.90;;;;;;5097767;28;20493;-66
2022/12/07 07:33:02;;;;;;;5.10;0.75;;;2.70;99.90;;;;;;5092543;27;20044;-66
2022/12/07 07:35:29;;;;;;;3.33;0.60;;;2.70;99.90;;;;;;5095884;28;20047;-66
2022/12/07 07:37:55;;;;;;;6.10;0.80;;;2.80;99.90;;;;;;5095269;28;20075;-66
2022/12/07 07:40:21;;;;;;;4.50;1.05;;;2.80;99.90;;;;;;5078164;28;20083;-65
2022/12/07 07:42:51;;;;;;;4.03;0.80;;;2.80;99.90;;;;;;5095121;28;20095;-65
2022/12/07 07:45:18;;;;;;;4.13;0.93;;;2.80;99.90;;;;;;5112930;28;20027;-66
2022/12/07 07:47:43;;;;;;;3.80;0.70;;;2.90;99.90;;;;;;5094398;28;20040;-66
2022/12/07 07:50:09;;;;;;;4.28;1.10;;;2.90;99.90;;;;;;5094679;28;20036;-65
2022/12/07 07:52:35;;;;;;;2.67;0.82;;;2.90;99.90;;;;;;5094362;28;20460;-65
2022/12/07 07:55:00;;;;;;;4.20;1.00;;;2.90;99.90;;;;;;5094795;28;20039;-65
2022/12/07 07:57:27;;;;;;;4.88;1.02;;;3.00;99.90;;;;;;5094234;28;20159;-64
2022/12/07 07:59:52;;;;;;;2.88;0.70;;;3.00;99.90;;;;;;5094458;28;20422;-65
2022/12/07 08:02:22;;;;;;;5.22;0.80;;;3.00;99.90;;;;;;5094269;28;20028;-66
2022/12/07 08:04:47;;;;;;;4.80;0.80;;;3.10;99.90;;;;;;5094300;28;20086;-66
2022/12/07 08:07:14;;;;;;;3.28;0.50;;;3.00;99.90;;;;;;5093498;28;20070;-65
2022/12/07 08:09:40;;;;;;;4.03;0.95;;;3.00;99.90;;;;;;5077132;28;20035;-65
2022/12/07 08:12:05;;;;;;;4.82;0.73;;;3.10;99.90;;;;;;5077350;28;20039;-66
2022/12/07 08:14:32;;;;;;;4.50;0.80;;;3.10;99.90;;;;;;5094245;28;20043;-65
2022/12/07 08:16:57;;;;;;;2.33;0.77;;;3.10;99.90;;;;;;5094574;28;20404;-65
2022/12/07 08:19:23;;;;;;;6.40;1.15;;;3.00;99.90;;;;;;5094451;28;20039;-66
2022/12/07 08:21:49;;;;;;;4.90;0.70;;;3.00;99.90;;;;;;5128353;27;20050;-65
2022/12/07 08:24:15;;;;;;;3.40;0.77;;;3.00;99.90;;;;;;5094036;28;20331;-65
2022/12/07 08:26:41;;;;;;;3.58;0.70;;;2.90;99.90;;;;;;5127831;27;20035;-66
2022/12/07 08:29:07;;;;;;;4.70;1.10;;;2.80;99.90;;;;;;5094222;28;20039;-65
2022/12/07 08:31:32;;;;;;;6.18;0.88;;;2.80;99.90;;;;;;5093813;28;20050;-65
2022/12/07 08:33:58;;;;;;;10.90;2.00;;;2.70;99.90;;;;;;5112100;28;20032;-66
2022/12/07 08:36:24;;;;;;;7.57;1.35;;;2.70;99.90;;;;;;5108444;28;20117;-65
2022/12/07 08:38:49;;;;;;;9.88;1.30;;;2.70;99.90;;;;;;5123118;27;20110;-66
2022/12/07 08:41:15;;;;;;;6.65;0.93;;;2.70;99.90;;;;;;5093098;28;20044;-66
2022/12/07 08:43:41;;;;;;;4.22;0.80;;;2.70;99.90;;;;;;5093234;28;20109;-66
2022/12/07 08:46:11;;;;;;;7.90;0.88;;;2.70;99.90;;;;;;5093679;28;20039;-65
2022/12/07 08:48:49;;;;;;;5.72;0.82;;;2.70;99.90;;;;;;5076232;28;20048;-66
2022/12/07 08:51:15;;;;;;;7.78;1.55;;;2.70;99.90;;;;;;5093449;28;20100;-66
2022/12/07 08:53:43;;;;;;;8.85;1.13;;;2.70;99.90;;;;;;5127339;27;20490;-66
2022/12/07 08:56:09;;;;;;;5.55;1.10;;;2.80;99.90;;;;;;5076196;28;20073;-66
2022/12/07 08:58:36;;;;;;;5.18;0.80;;;2.90;99.90;;;;;;5092786;28;20051;-65
2022/12/07 09:01:04;;;;;;;4.32;0.90;;;3.00;99.90;;;;;;5093372;28;20397;-65
2022/12/07 09:03:30;;;;;;;6.72;1.27;;;3.00;99.90;;;;;;5127724;27;20478;-66
2022/12/07 09:05:57;;;;;;;6.72;1.02;;;3.00;99.90;;;;;;5093546;28;20367;-66
2022/12/07 09:08:28;;;;;;;9.45;1.27;;;2.90;99.90;;;;;;5093195;28;20053;-65
2022/12/07 09:10:53;;;;;;;8.35;1.75;;;2.90;99.90;;;;;;5093319;28;20047;-65
2022/12/07 09:13:19;;;;;;;9.98;1.63;;;2.80;99.90;;;;;;5093250;28;20036;-66
2022/12/07 09:15:44;;;;;;;6.47;1.15;;;2.70;99.90;;;;;;5092847;28;20114;-66
2022/12/07 09:18:10;;;;;;;5.15;1.23;;;2.80;99.90;;;;;;5075828;28;20127;-65
2022/12/07 09:20:36;;;;;;;8.10;1.25;;;2.70;99.90;;;;;;5093189;28;20497;-65
2022/12/07 09:23:01;;;;;;;6.38;1.10;;;2.80;99.90;;;;;;5092986;28;20043;-65
2022/12/07 09:25:27;;;;;;;6.43;1.23;;;2.90;99.90;;;;;;5093122;28;20383;-66
2022/12/07 09:27:57;;;;;;;7.18;1.15;;;3.00;99.90;;;;;;5126908;27;20456;-66
2022/12/07 09:30:23;;;;;;;9.48;1.45;;;3.20;99.90;;;;;;5075938;28;20087;-66
2022/12/07 09:32:48;;;;;;;8.23;1.30;;;3.30;99.90;;;;;;5092783;28;20075;-66
2022/12/07 09:35:14;;;;;;;5.85;0.98;;;3.40;99.90;;;;;;5075895;28;20077;-66
2022/12/07 09:37:40;;;;;;;4.57;1.15;;;3.60;99.90;;;;;;5092859;28;20035;-66
2022/12/07 09:40:06;;;;;;;4.88;1.02;;;3.80;99.90;;;;;;5092902;28;20462;-66
2022/12/07 09:42:44;;;;;;;5.47;1.10;;;4.10;99.90;;;;;;5092927;28;20107;-66
2022/12/07 09:45:18;;;;;;;5.63;1.10;;;4.40;99.90;;;;;;5092644;28;20397;-66
2022/12/07 09:47:45;;;;;;;4.82;0.85;;;4.80;99.90;;;;;;5126899;28;20524;-66
2022/12/07 09:50:17;;;;;;;6.90;1.00;;;5.00;99.90;;;;;;5110879;28;20505;-65
2022/12/07 09:52:45;;;;;;;7.55;1.20;;;5.00;99.90;;;;;;5092322;28;20044;-66
2022/12/07 09:55:14;;;;;;;7.95;1.10;;;5.00;99.90;;;;;;5092577;28;20040;-65
2022/12/07 09:57:41;;;;;;;7.93;1.25;;;4.80;99.90;;;;;;5075669;28;20054;-66
2022/12/07 10:00:16;;;;;;;5.57;1.05;;;4.80;99.90;;;;;;5072134;28;20044;-66
2022/12/07 10:02:47;;;;;;;10.20;1.48;;;4.70;99.90;;;;;;5089046;28;20106;-66
2022/12/07 10:05:20;;;;;;;7.18;1.10;;;4.70;99.90;;;;;;5089229;28;20114;-65
2022/12/07 10:07:46;;;;;;;5.10;1.10;;;4.60;99.90;;;;;;5089270;28;20086;-67
2022/12/07 10:10:22;;;;;;;6.10;1.10;;;4.60;99.90;;;;;;5089027;28;20070;-66
2022/12/07 10:12:54;;;;;;;5.70;1.10;;;4.50;99.90;;;;;;5090217;28;20105;-66
2022/12/07 10:15:20;;;;;;;3.28;0.90;;;4.50;99.90;;;;;;5082437;28;20496;-65
2022/12/07 10:17:51;;;;;;;7.65;1.45;;;4.50;99.90;;;;;;5088843;28;20047;-66
2022/12/07 10:20:21;;;;;;;10.15;1.45;;;4.50;99.90;;;;;;5089016;28;20047;-66
2022/12/07 10:22:58;;;;;;;12.32;1.45;;;4.50;99.90;;;;;;5088803;28;20055;-66
2022/12/07 10:25:32;;;;;;;5.57;1.00;;;4.50;99.90;;;;;;5116056;28;20048;-66
2022/12/07 10:28:11;;;;;;;10.82;1.10;;;4.60;99.90;;;;;;5088619;28;20483;-66
2022/12/07 10:30:51;;;;;;;10.60;1.75;;;4.70;99.90;;;;;;5091577;28;20386;-66
2022/12/07 10:33:30;;;;;;;11.75;1.35;;;4.90;99.90;;;;;;5092740;28;20036;-65
2022/12/07 10:35:56;;;;;;;7.43;1.50;;;5.10;99.90;;;;;;5092557;28;20040;-66
2022/12/07 10:38:21;;;;;;;7.15;1.33;;;5.30;99.90;;;;;;5092755;28;20032;-66
2022/12/07 10:40:47;;;;;;;7.88;1.10;;;5.60;99.90;;;;;;5075682;28;20077;-65
2022/12/07 10:43:13;;;;;;;5.20;1.20;;;5.60;99.90;;;;;;5092323;28;20044;-65
2022/12/07 10:46:17;;;;;;;6.47;1.10;;;5.60;99.90;;;;;;5092840;28;20036;-66
2022/12/07 10:49:01;;;;;;;6.18;1.13;;;5.40;99.90;;;;;;5092450;28;20039;-66
2022/12/07 10:52:01;;;;;;;5.30;1.20;;;5.30;99.90;;;;;;5075619;28;20051;-66
2022/12/07 10:54:51;;;;;;;6.47;1.50;;;5.20;99.90;;;;;;5072281;28;20052;-66
2022/12/07 10:57:43;;;;;;;8.95;1.50;;;5.20;99.90;;;;;;5091799;28;20043;-65
2022/12/07 11:00:23;;;;;;;10.90;1.42;;;5.20;99.90;;;;;;5095516;28;20393;-65
2022/12/07 11:03:06;;;;;;;5.38;1.13;;;5.20;99.90;;;;;;5095576;28;20098;-65
2022/12/07 11:05:39;;;;;;;5.82;1.20;;;5.10;99.90;;;;;;5095460;28;20058;-65
2022/12/07 11:08:11;;;;;;;6.57;1.73;;;5.20;99.90;;;;;;5095656;28;20514;-65
2022/12/07 11:10:42;;;;;;;7.00;1.23;;;5.30;99.90;;;;;;5095656;28;20088;-66
2022/12/07 11:13:25;;;;;;;6.47;1.20;;;5.30;99.90;;;;;;5095152;28;20054;-67
2022/12/07 11:16:12;;;;;;;8.65;1.38;;;5.30;99.90;;;;;;5095281;28;20099;-66
2022/12/07 11:18:50;;;;;;;7.03;1.15;;;5.30;99.90;;;;;;5095465;28;20043;-66
2022/12/07 11:21:22;;;;;;;7.55;1.00;;;5.30;99.90;;;;;;5095389;28;20106;-66
2022/12/07 11:24:17;;;;;;;5.68;1.00;;;5.40;99.90;;;;;;5095227;28;20039;-65
2022/12/07 11:26:59;;;;;;;6.82;0.90;;;5.50;99.90;;;;;;5078013;28;20118;-66
2022/12/07 11:29:36;;;;;;;;;;;5.60;99.90;;;;;;5129799;27;20562;-66
2022/12/07 11:32:28;;;;;;;4.63;1.05;;;5.70;99.90;;;;;;5095099;28;20727;-67
2022/12/07 11:35:08;;;;;;;6.68;1.42;;;5.80;99.90;;;;;;5094962;28;20039;-66
2022/12/07 11:37:37;;;;;;;6.45;0.80;;;5.90;99.90;;;;;;5078124;28;20478;-66
2022/12/07 11:40:27;;;;;;;5.15;1.00;;;5.90;99.90;;;;;;5113265;28;20493;-66
2022/12/07 11:43:11;;;;;;;8.05;1.27;;;5.90;99.90;;;;;;5093953;28;20118;-66
2022/12/07 11:45:42;;;;;;;4.35;0.93;;;5.90;99.90;;;;;;5094748;28;20043;-67
2022/12/07 11:48:18;;;;;;;7.03;1.17;;;6.00;99.90;;;;;;5129122;27;20040;-67
2022/12/07 11:50:54;;;;;;;8.75;1.60;;;6.00;99.90;;;;;;5077686;28;20491;-67
2022/12/07 11:53:26;;;;;;;4.80;0.90;;;5.90;99.90;;;;;;5094157;28;20043;-66
2022/12/07 11:56:03;;;;;;;5.82;1.25;;;5.90;99.90;;;;;;5077488;28;20498;-67
2022/12/07 11:58:49;;;;;;;10.15;1.15;;;5.90;99.90;;;;;;5128279;27;20047;-66
2022/12/07 12:01:17;;;;;;;5.40;1.38;;;5.70;99.90;;;;;;5094475;28;20035;-66
2022/12/07 12:03:47;;;;;;;4.70;1.08;;;5.70;99.90;;;;;;5111348;28;20047;-66
2022/12/07 12:06:14;;;;;;;8.07;1.77;;;5.60;99.90;;;;;;5128150;27;20047;-66
2022/12/07 12:08:46;;;;;;;9.32;1.40;;;5.70;99.90;;;;;;5111220;28;20055;-67
2022/12/07 12:11:50;;;;;;;10.15;1.75;;;5.80;99.90;;;;;;5094225;28;20043;-65
2022/12/07 12:14:36;;;;;;;6.78;1.65;;;6.00;99.90;;;;;;5086538;28;20039;-66
2022/12/07 12:17:11;;;;;;;9.50;1.55;;;6.20;99.90;;;;;;5093680;28;20043;-66
2022/12/07 12:20:00;;;;;;;6.40;1.13;;;6.50;99.90;;;;;;5093628;28;20448;-67
2022/12/07 12:22:40;;;;;;;7.15;1.30;;;6.70;99.90;;;;;;5032620;28;20514;-66
2022/12/07 12:25:16;;;;;;;7.55;1.77;;;7.10;99.90;;;;;;5032667;28;20055;-66
2022/12/07 12:27:47;;;;;;;6.85;1.35;;;7.10;99.90;;;;;;5032614;28;20071;-67
2022/12/07 12:30:38;;;;;;;7.03;1.55;;;6.90;99.90;;;;;;5032925;28;20439;-67
2022/12/07 12:33:15;;;;;;;4.95;0.90;;;6.80;99.90;;;;;;5032362;28;20057;-67
2022/12/07 12:35:41;;;;;;;8.55;1.00;;;7.10;99.90;;;;;;5032743;28;20033;-67
2022/12/07 12:38:27;;;;;;;6.45;1.00;;;7.00;99.90;;;;;;5032713;28;20499;-66
2022/12/07 12:40:54;;;;;;;5.95;1.10;;;7.00;99.90;;;;;;5049055;28;20145;-67
2022/12/07 12:43:50;;;;;;;7.78;1.42;;;6.90;99.90;;;;;;5032288;28;20041;-66
2022/12/07 12:46:33;;;;;;;7.13;0.90;;;6.90;99.90;;;;;;5032196;28;20071;-66
2022/12/07 12:49:19;;;;;;;6.22;1.05;;;6.90;99.90;;;;;;5032323;28;20044;-66
2022/12/07 12:51:53;;;;;;;9.00;1.23;;;6.90;99.90;;;;;;5032261;28;20056;-66
2022/12/07 12:54:20;;;;;;;11.77;1.40;;;6.80;99.90;;;;;;5048576;28;20037;-67
2022/12/07 12:57:22;;;;;;;8.30;1.15;;;6.70;99.90;;;;;;5048173;28;20021;-67
2022/12/07 12:59:51;;;;;;;10.55;1.05;;;6.60;99.90;;;;;;5068485;28;20118;-67
2022/12/07 13:02:19;;;;;;;11.38;1.27;;;6.60;99.90;;;;;;5098024;28;20050;-67
2022/12/07 13:05:00;;;;;;;8.00;1.10;;;6.60;99.90;;;;;;5093350;28;20067;-67
2022/12/07 13:07:49;;;;;;;7.38;1.17;;;6.40;99.90;;;;;;5093272;28;20512;-66
2022/12/07 13:10:24;;;;;;;10.73;1.90;;;6.30;99.90;;;;;;5110309;28;20081;-66
2022/12/07 13:13:10;;;;;;;5.13;1.20;;;6.20;99.90;;;;;;5126803;27;20079;-67
2022/12/07 13:15:43;;;;;;;7.82;1.45;;;6.20;99.90;;;;;;5093074;28;20047;-66
2022/12/07 13:18:23;;;;;;;7.13;1.23;;;6.20;99.90;;;;;;5111396;28;20114;-66